Bruning, Nebraska
Current Conditions -  °F | °C
As of 2:15 PM on Monday 26 Jan 2015 (Local Time) from KHJH Reporting Station
Clear Clear  
Wind Chill: 65°   Ceiling: Unl
Heat Index: 65°   Visibility: 10mi
Dew Point: 24°   Wind: 15mph
Humidity: 21%   Direction: 340°NNW
Pressure: 29.97"   Gusts: NA
Location:  40.34°N, 97.57°W
Report Text: KHJH 262015Z AUTO 34013KT 10SM CLR 18/M05 A2997 RMK AO2 T01821046
Loading
Personal Weather Stations






























Interactive Weather Map New forecast layout! Learn more

10-Day Weather Forecast

Advertisements
Track Severe Weather on mobile